createdAt,value
2023-02-26T00:00:36.823Z,10.29
2023-02-26T00:03:04.334Z,10.43
2023-02-26T00:05:31.500Z,9.61
2023-02-26T00:07:58.685Z,10.19
2023-02-26T00:10:26.151Z,9.47
2023-02-26T00:12:53.594Z,10.27
2023-02-26T00:15:21.034Z,10.43
2023-02-26T00:18:02.257Z,9.73
2023-02-26T00:20:29.609Z,10.39
2023-02-26T00:22:57.223Z,10.74
2023-02-26T00:25:24.358Z,10.20
2023-02-26T00:27:51.726Z,10.56
2023-02-26T00:30:19.383Z,10.59
2023-02-26T00:32:46.796Z,9.22
2023-02-26T00:35:16.494Z,9.63
2023-02-26T00:37:44.660Z,10.22
2023-02-26T00:40:16.809Z,9.46
2023-02-26T00:42:45.216Z,8.69
2023-02-26T00:45:12.758Z,8.63
2023-02-26T00:47:43.522Z,7.86
2023-02-26T00:50:10.939Z,9.11
2023-02-26T00:52:39.837Z,9.11
2023-02-26T00:55:07.091Z,8.74
2023-02-26T00:57:34.564Z,9.10
2023-02-26T01:00:02.748Z,9.45
2023-02-26T01:02:30.066Z,10.03
2023-02-26T01:04:57.635Z,9.06
2023-02-26T01:07:24.813Z,8.64
2023-02-26T01:09:53.132Z,10.10
2023-02-26T01:12:22.221Z,9.50
2023-02-26T01:14:50.551Z,9.19
2023-02-26T01:17:25.887Z,8.74
2023-02-26T01:19:57.332Z,8.84
2023-02-26T01:22:36.230Z,9.02
2023-02-26T01:25:05.592Z,8.23
2023-02-26T01:27:32.934Z,8.56
2023-02-26T01:30:00.191Z,8.77
2023-02-26T01:32:36.419Z,8.09
2023-02-26T01:35:31.502Z,8.35
2023-02-26T01:38:04.055Z,7.90
2023-02-26T01:40:50.100Z,8.20
2023-02-26T01:43:20.261Z,8.99
2023-02-26T01:45:55.824Z,7.69
2023-02-26T01:48:29.817Z,8.17
2023-02-26T01:50:58.335Z,8.67
2023-02-26T01:53:26.710Z,7.49
2023-02-26T01:55:58.042Z,8.74
2023-02-26T01:58:26.394Z,9.35
2023-02-26T02:00:53.577Z,9.38
2023-02-26T02:03:21.092Z,9.77
2023-02-26T02:05:51.058Z,9.45
2023-02-26T02:08:19.174Z,8.90
2023-02-26T02:10:47.089Z,10.13
2023-02-26T02:13:14.307Z,9.84
2023-02-26T02:16:03.781Z,9.68
2023-02-26T02:18:39.348Z,9.82
2023-02-26T02:21:06.789Z,10.15
2023-02-26T02:23:37.153Z,10.18
2023-02-26T02:26:04.284Z,9.05
2023-02-26T02:28:55.057Z,10.33
2023-02-26T02:31:22.949Z,10.83
2023-02-26T02:33:52.506Z,10.23
2023-02-26T02:36:26.624Z,10.56
2023-02-26T02:38:55.811Z,10.66
2023-02-26T02:41:25.482Z,11.24
2023-02-26T02:43:53.874Z,10.75
2023-02-26T02:46:30.940Z,11.40
2023-02-26T02:49:02.077Z,11.27
2023-02-26T02:51:33.922Z,11.53
2023-02-26T02:54:01.103Z,10.40
2023-02-26T02:56:36.995Z,9.96
2023-02-26T02:59:19.419Z,10.33
2023-02-26T03:01:47.301Z,10.53
2023-02-26T03:04:15.320Z,10.31
2023-02-26T03:06:42.576Z,9.71
2023-02-26T03:09:11.155Z,9.86
2023-02-26T03:11:41.468Z,9.43
2023-02-26T03:14:10.284Z,8.09
2023-02-26T03:16:41.040Z,8.43
2023-02-26T03:19:28.439Z,8.00
2023-02-26T03:22:07.319Z,8.21
2023-02-26T03:24:37.936Z,7.72
2023-02-26T03:27:18.932Z,8.00
2023-02-26T03:29:54.518Z,8.65
2023-02-26T03:32:25.133Z,8.18
2023-02-26T03:35:06.366Z,8.79
2023-02-26T03:37:37.444Z,8.80
2023-02-26T03:40:09.755Z,8.98
2023-02-26T03:42:37.631Z,8.89
2023-02-26T03:45:13.883Z,8.20
2023-02-26T03:47:42.139Z,7.97
2023-02-26T03:50:11.705Z,8.26
2023-02-26T03:52:40.514Z,8.54
2023-02-26T03:55:13.488Z,7.82
2023-02-26T03:57:44.272Z,7.82
2023-02-26T04:00:13.430Z,8.09
2023-02-26T04:02:43.467Z,8.15
2023-02-26T04:05:19.055Z,8.62
2023-02-26T04:07:47.140Z,7.55
2023-02-26T04:10:15.593Z,8.04
2023-02-26T04:12:42.762Z,8.04
2023-02-26T04:15:10.235Z,8.19
2023-02-26T04:17:37.766Z,8.67
2023-02-26T04:20:08.562Z,8.48
2023-02-26T04:22:35.717Z,9.11
2023-02-26T04:25:03.227Z,8.06
2023-02-26T04:27:30.979Z,7.89
2023-02-26T04:29:58.207Z,8.47
2023-02-26T04:32:25.829Z,8.11
2023-02-26T04:34:53.300Z,8.28
2023-02-26T04:37:20.707Z,8.19
2023-02-26T04:39:48.451Z,8.26
2023-02-26T04:42:15.637Z,8.43
2023-02-26T04:44:42.829Z,8.12
2023-02-26T04:47:12.955Z,8.92
2023-02-26T04:49:40.181Z,8.86
2023-02-26T04:52:07.513Z,7.60
2023-02-26T04:54:35.329Z,6.45
2023-02-26T04:57:02.527Z,6.79
2023-02-26T04:59:30.035Z,7.20
2023-02-26T05:01:57.733Z,7.53
2023-02-26T05:04:25.722Z,7.01
2023-02-26T05:06:53.964Z,7.23
2023-02-26T05:09:21.904Z,6.68
2023-02-26T05:11:49.740Z,7.00
2023-02-26T05:14:17.274Z,6.95
2023-02-26T05:16:44.770Z,7.32
2023-02-26T05:19:11.942Z,7.19
2023-02-26T05:21:39.238Z,5.89
2023-02-26T05:24:06.909Z,6.51
2023-02-26T05:26:34.096Z,6.28
2023-02-26T05:29:01.262Z,7.07
2023-02-26T05:31:29.958Z,7.06
2023-02-26T05:33:57.166Z,6.87
2023-02-26T05:36:24.622Z,7.39
2023-02-26T05:38:53.144Z,8.00
2023-02-26T05:41:20.304Z,7.97
2023-02-26T05:43:47.539Z,8.33
2023-02-26T05:46:15.066Z,7.30
2023-02-26T05:48:44.654Z,6.29
2023-02-26T05:51:12.807Z,7.53
2023-02-26T05:53:40.271Z,7.99
2023-02-26T05:56:07.705Z,8.09
2023-02-26T05:58:35.007Z,7.91
2023-02-26T06:01:02.444Z,7.50
2023-02-26T06:03:29.934Z,8.06
2023-02-26T06:05:57.104Z,6.17
2023-02-26T06:08:24.275Z,6.65
2023-02-26T06:10:52.319Z,6.60
2023-02-26T06:13:19.555Z,6.25
2023-02-26T06:15:47.531Z,6.89
2023-02-26T06:18:15.008Z,7.53
2023-02-26T06:20:43.399Z,7.82
2023-02-26T06:23:10.600Z,7.93
2023-02-26T06:25:38.053Z,7.39
2023-02-26T06:28:05.280Z,7.09
2023-02-26T06:30:32.482Z,7.95
2023-02-26T06:33:00.021Z,8.01
2023-02-26T06:35:29.964Z,8.60
2023-02-26T06:37:57.342Z,7.37
2023-02-26T06:40:24.873Z,6.73
2023-02-26T06:42:52.038Z,7.70
2023-02-26T06:45:19.324Z,7.07
2023-02-26T06:47:47.038Z,7.57
2023-02-26T06:50:14.240Z,7.14
2023-02-26T06:52:41.398Z,7.60
2023-02-26T06:55:09.126Z,7.10
2023-02-26T06:57:36.310Z,7.22
2023-02-26T07:00:04.849Z,7.96
2023-02-26T07:02:32.412Z,7.73
2023-02-26T07:04:59.588Z,7.22
2023-02-26T07:07:26.792Z,6.96
2023-02-26T07:09:54.225Z,6.90
2023-02-26T07:12:21.464Z,6.61
2023-02-26T07:14:48.839Z,6.61
2023-02-26T07:17:20.818Z,6.21
2023-02-26T07:19:48.866Z,6.14
2023-02-26T07:22:16.577Z,5.95
2023-02-26T07:24:43.802Z,5.66
2023-02-26T07:27:11.348Z,5.88
2023-02-26T07:29:38.912Z,6.46
2023-02-26T07:32:06.134Z,5.95
2023-02-26T07:34:33.751Z,7.01
2023-02-26T07:37:01.191Z,6.80
2023-02-26T07:39:28.505Z,5.82
2023-02-26T07:41:55.672Z,6.27
2023-02-26T07:44:23.305Z,6.46
2023-02-26T07:46:50.663Z,7.52
2023-02-26T07:49:17.894Z,6.00
2023-02-26T07:51:46.049Z,6.05
2023-02-26T07:54:13.415Z,6.22
2023-02-26T07:56:41.315Z,7.29
2023-02-26T07:59:09.661Z,6.75
2023-02-26T08:01:38.032Z,6.14
2023-02-26T08:04:05.534Z,6.73
2023-02-26T08:06:32.701Z,7.47
2023-02-26T08:08:59.848Z,7.65
2023-02-26T08:11:27.543Z,7.42
2023-02-26T08:13:54.756Z,7.17
2023-02-26T08:16:21.917Z,6.62
2023-02-26T08:18:49.348Z,6.65
2023-02-26T08:21:16.676Z,6.15
2023-02-26T08:23:43.868Z,6.84
2023-02-26T08:26:12.427Z,6.33
2023-02-26T08:28:39.585Z,6.03
2023-02-26T08:31:06.933Z,6.67
2023-02-26T08:33:34.541Z,7.39
2023-02-26T08:36:01.785Z,8.39
2023-02-26T08:38:29.344Z,8.59
2023-02-26T08:40:57.290Z,7.71
2023-02-26T08:43:24.596Z,8.09
2023-02-26T08:45:52.684Z,7.95
2023-02-26T08:48:21.512Z,7.36
2023-02-26T08:50:48.785Z,8.13
2023-02-26T08:53:16.044Z,7.29
2023-02-26T08:55:44.941Z,6.53
2023-02-26T08:58:12.071Z,6.75
2023-02-26T09:00:39.228Z,7.45
2023-02-26T09:03:06.691Z,8.02
2023-02-26T09:05:33.964Z,8.06
2023-02-26T09:08:01.139Z,7.36
2023-02-26T09:10:28.614Z,7.86
2023-02-26T09:12:55.969Z,7.15
2023-02-26T09:15:23.136Z,7.72
2023-02-26T09:17:51.782Z,7.38
2023-02-26T09:20:19.048Z,7.05
2023-02-26T09:22:46.214Z,7.39
2023-02-26T09:25:13.667Z,8.86
2023-02-26T09:27:40.827Z,9.17
2023-02-26T09:30:08.348Z,8.43
2023-02-26T09:32:35.909Z,8.05
2023-02-26T09:35:03.778Z,7.42
2023-02-26T09:37:31.003Z,8.09
2023-02-26T09:39:58.472Z,8.33
2023-02-26T09:42:25.595Z,7.88
2023-02-26T09:44:54.159Z,7.98
2023-02-26T09:47:23.773Z,8.97
2023-02-26T09:49:50.910Z,8.36
2023-02-26T09:52:36.930Z,8.57
2023-02-26T09:55:12.207Z,8.95
2023-02-26T09:57:43.939Z,8.86
2023-02-26T10:00:14.985Z,9.22
2023-02-26T10:02:45.199Z,9.37
2023-02-26T10:05:48.577Z,8.75
2023-02-26T10:08:17.352Z,8.79
2023-02-26T10:10:51.692Z,8.76
2023-02-26T10:13:21.899Z,8.38
2023-02-26T10:15:49.054Z,9.69
2023-02-26T10:18:21.488Z,9.31
2023-02-26T10:20:55.869Z,8.67
2023-02-26T10:23:28.756Z,8.93
2023-02-26T10:26:04.814Z,9.04
2023-02-26T10:28:48.772Z,9.27
2023-02-26T10:31:19.513Z,10.02
2023-02-26T10:33:51.731Z,9.90
2023-02-26T10:36:21.357Z,10.19
2023-02-26T10:38:51.262Z,10.02
2023-02-26T10:41:20.765Z,10.15
2023-02-26T10:43:49.450Z,10.44
2023-02-26T10:46:35.921Z,10.07
2023-02-26T10:49:21.980Z,9.34
2023-02-26T10:51:49.730Z,10.05
2023-02-26T10:54:36.329Z,9.19
2023-02-26T10:57:04.171Z,9.80
2023-02-26T10:59:31.907Z,10.03
2023-02-26T11:01:59.100Z,10.13
2023-02-26T11:04:27.401Z,9.75
2023-02-26T11:06:55.194Z,9.68
2023-02-26T11:09:25.185Z,10.55
2023-02-26T11:12:06.085Z,10.55
2023-02-26T11:14:34.041Z,10.64
2023-02-26T11:17:02.171Z,10.11
2023-02-26T11:19:39.729Z,10.34
2023-02-26T11:22:09.892Z,9.95
2023-02-26T11:24:38.518Z,9.96
2023-02-26T11:27:08.789Z,9.93
2023-02-26T11:29:38.552Z,9.95
2023-02-26T11:32:06.269Z,10.65
2023-02-26T11:34:34.608Z,10.94
2023-02-26T11:37:02.102Z,11.62
2023-02-26T11:39:36.834Z,10.57
2023-02-26T11:42:04.716Z,10.60
2023-02-26T11:44:31.933Z,10.22
2023-02-26T11:46:59.565Z,10.52
2023-02-26T11:49:27.709Z,10.99
2023-02-26T11:52:21.371Z,12.36
2023-02-26T11:54:50.149Z,11.43
2023-02-26T11:57:19.312Z,12.13
2023-02-26T11:59:51.029Z,12.34
2023-02-26T12:02:21.579Z,11.56
2023-02-26T12:04:52.458Z,11.31
2023-02-26T12:07:20.352Z,11.37
2023-02-26T12:09:47.993Z,11.90
2023-02-26T12:12:15.734Z,12.36
2023-02-26T12:14:44.093Z,12.82
2023-02-26T12:17:20.936Z,12.72
2023-02-26T12:20:00.613Z,12.12
2023-02-26T12:22:27.998Z,12.34
2023-02-26T12:24:56.066Z,12.09
2023-02-26T12:27:42.414Z,11.81
2023-02-26T12:30:28.685Z,12.45
2023-02-26T12:32:59.114Z,12.61
2023-02-26T12:35:27.945Z,12.30
2023-02-26T12:38:02.242Z,12.45
2023-02-26T12:40:33.432Z,12.21
2023-02-26T12:43:14.294Z,12.29
2023-02-26T12:45:45.343Z,12.69
2023-02-26T12:48:31.441Z,12.20
2023-02-26T12:51:04.865Z,12.45
2023-02-26T12:53:59.290Z,12.34
2023-02-26T12:56:34.811Z,11.68
2023-02-26T12:59:02.282Z,12.87
2023-02-26T13:02:00.552Z,12.51
2023-02-26T13:04:51.757Z,11.80
2023-02-26T13:07:42.641Z,11.35
2023-02-26T13:10:29.382Z,12.21
2023-02-26T13:13:04.405Z,12.88
2023-02-26T13:15:37.848Z,12.90
2023-02-26T13:18:13.898Z,12.38
2023-02-26T13:20:42.645Z,12.76
2023-02-26T13:23:12.355Z,12.65
2023-02-26T13:25:52.057Z,12.02
2023-02-26T13:28:30.767Z,12.10
2023-02-26T13:30:59.068Z,12.19
2023-02-26T13:33:28.725Z,12.49
2023-02-26T13:35:56.639Z,12.64
2023-02-26T13:38:24.102Z,11.63
2023-02-26T13:41:08.145Z,12.16
2023-02-26T13:43:42.113Z,12.50
2023-02-26T13:46:26.040Z,12.63
2023-02-26T13:49:01.088Z,13.20
2023-02-26T13:51:31.725Z,12.54
2023-02-26T13:54:00.902Z,13.39
2023-02-26T13:56:33.867Z,12.33
2023-02-26T13:59:25.218Z,11.87
2023-02-26T14:01:57.277Z,12.50
2023-02-26T14:04:26.328Z,12.63
2023-02-26T14:06:57.082Z,12.99
2023-02-26T14:09:28.347Z,13.09
2023-02-26T14:11:55.770Z,13.01
2023-02-26T14:14:23.508Z,12.76
2023-02-26T14:17:03.889Z,12.66
2023-02-26T14:19:34.385Z,13.19
2023-02-26T14:22:03.539Z,11.80
2023-02-26T14:24:40.626Z,12.48
2023-02-26T14:27:24.097Z,12.13
2023-02-26T14:29:58.773Z,12.18
2023-02-26T14:32:30.081Z,12.68
2023-02-26T14:35:10.670Z,12.08
2023-02-26T14:37:41.397Z,11.96
2023-02-26T14:40:29.037Z,12.52
2023-02-26T14:42:58.164Z,12.83
2023-02-26T14:45:35.561Z,12.78
2023-02-26T14:48:05.668Z,12.78
2023-02-26T14:50:37.752Z,13.29
2023-02-26T14:53:30.357Z,12.68
2023-02-26T14:56:17.218Z,12.53
2023-02-26T14:58:45.977Z,13.27
2023-02-26T15:01:25.734Z,13.43
2023-02-26T15:04:09.883Z,13.64
2023-02-26T15:06:38.415Z,13.65
2023-02-26T15:09:14.852Z,12.07
2023-02-26T15:12:03.417Z,12.39
2023-02-26T15:14:50.593Z,11.46
2023-02-26T15:17:37.364Z,11.51
2023-02-26T15:20:09.721Z,10.33
2023-02-26T15:22:43.824Z,10.69
2023-02-26T15:25:20.036Z,11.15
2023-02-26T15:27:48.667Z,10.07
2023-02-26T15:30:17.844Z,10.94
2023-02-26T15:32:46.612Z,11.98
2023-02-26T15:35:19.360Z,11.86
2023-02-26T15:37:51.841Z,11.87
2023-02-26T15:40:19.631Z,11.66
2023-02-26T15:42:49.744Z,11.64
2023-02-26T15:45:24.103Z,11.45
2023-02-26T15:47:54.896Z,12.03
2023-02-26T15:50:24.916Z,11.92
2023-02-26T15:52:55.762Z,12.11
2023-02-26T15:55:24.306Z,12.61
2023-02-26T15:57:52.524Z,12.23
2023-02-26T16:00:25.998Z,12.66
2023-02-26T16:03:00.062Z,12.94
2023-02-26T16:05:29.333Z,13.00
2023-02-26T16:07:59.415Z,13.27
2023-02-26T16:10:36.543Z,13.39
2023-02-26T16:13:09.214Z,13.43
2023-02-26T16:15:37.903Z,13.57
2023-02-26T16:18:12.251Z,13.24
2023-02-26T16:20:42.924Z,13.07
2023-02-26T16:23:13.013Z,13.00
2023-02-26T16:25:44.815Z,12.79
2023-02-26T16:28:15.051Z,12.88
2023-02-26T16:30:44.912Z,12.87
2023-02-26T16:33:14.036Z,12.89
2023-02-26T16:35:53.246Z,12.66
2023-02-26T16:38:24.947Z,12.51
2023-02-26T16:40:59.203Z,13.00
2023-02-26T16:43:33.945Z,12.58
2023-02-26T16:46:02.504Z,10.97
2023-02-26T16:48:40.608Z,10.88
2023-02-26T16:51:10.955Z,11.39
2023-02-26T16:53:48.046Z,12.31
2023-02-26T16:56:18.737Z,12.35
2023-02-26T16:58:50.562Z,12.48
2023-02-26T17:01:19.595Z,11.93
2023-02-26T17:03:49.853Z,12.36
2023-02-26T17:06:20.192Z,12.08
2023-02-26T17:08:54.379Z,12.00
2023-02-26T17:11:25.190Z,11.93
2023-02-26T17:14:09.514Z,11.84
2023-02-26T17:16:37.866Z,11.71
2023-02-26T17:19:06.834Z,11.88
2023-02-26T17:21:34.910Z,11.78
2023-02-26T17:24:03.457Z,12.41
2023-02-26T17:26:32.405Z,11.93
2023-02-26T17:29:01.133Z,11.88
2023-02-26T17:31:29.819Z,12.26
2023-02-26T17:33:59.071Z,12.07
2023-02-26T17:36:27.195Z,12.30
2023-02-26T17:38:55.758Z,11.54
2023-02-26T17:41:25.499Z,12.46
2023-02-26T17:43:56.785Z,12.10
2023-02-26T17:46:26.781Z,12.65
2023-02-26T17:48:55.036Z,12.49
2023-02-26T17:51:23.105Z,12.20
2023-02-26T17:53:52.029Z,12.63
2023-02-26T17:56:26.899Z,13.04
2023-02-26T17:58:56.369Z,12.94
2023-02-26T18:01:25.516Z,12.43
2023-02-26T18:03:57.930Z,12.35
2023-02-26T18:06:34.340Z,12.45
2023-02-26T18:09:04.983Z,13.01
2023-02-26T18:11:34.246Z,13.14
2023-02-26T18:14:08.512Z,13.17
2023-02-26T18:16:41.634Z,12.87
2023-02-26T18:19:12.225Z,12.90
2023-02-26T18:21:41.434Z,12.95
2023-02-26T18:24:10.583Z,13.18
2023-02-26T18:26:38.966Z,13.37
2023-02-26T18:29:07.569Z,13.29
2023-02-26T18:31:37.038Z,13.44
2023-02-26T18:34:05.296Z,13.47
2023-02-26T18:36:39.875Z,13.63
2023-02-26T18:39:10.499Z,13.37
2023-02-26T18:41:38.685Z,13.50
2023-02-26T18:44:07.276Z,13.56
2023-02-26T18:46:40.658Z,13.21
2023-02-26T18:49:16.472Z,13.57
2023-02-26T18:51:45.575Z,13.67
2023-02-26T18:54:13.913Z,13.82
2023-02-26T18:56:42.270Z,13.78
2023-02-26T18:59:11.934Z,13.90
2023-02-26T19:01:41.962Z,13.77
2023-02-26T19:04:12.960Z,13.55
2023-02-26T19:06:41.886Z,13.63
2023-02-26T19:09:10.743Z,13.56
2023-02-26T19:11:42.699Z,13.56
2023-02-26T19:14:10.635Z,13.11
2023-02-26T19:16:43.015Z,13.43
2023-02-26T19:19:15.077Z,13.55
2023-02-26T19:21:48.023Z,13.61
2023-02-26T19:24:26.642Z,13.37
2023-02-26T19:26:56.729Z,13.58
2023-02-26T19:29:26.552Z,13.55
2023-02-26T19:31:56.099Z,13.62
2023-02-26T19:34:27.548Z,13.65
2023-02-26T19:36:56.361Z,13.82
2023-02-26T19:39:24.813Z,14.05
2023-02-26T19:41:57.068Z,13.36
2023-02-26T19:44:25.209Z,13.52
2023-02-26T19:46:54.957Z,13.63
2023-02-26T19:49:23.929Z,13.76
2023-02-26T19:51:52.869Z,13.67
2023-02-26T19:54:31.415Z,13.68
2023-02-26T19:57:02.946Z,13.73
2023-02-26T19:59:32.388Z,13.76
2023-02-26T20:02:01.946Z,13.88
2023-02-26T20:04:31.725Z,13.72
2023-02-26T20:07:00.261Z,13.46
2023-02-26T20:09:30.771Z,13.52
2023-02-26T20:12:00.103Z,13.24
2023-02-26T20:14:30.820Z,13.14
2023-02-26T20:17:00.278Z,13.58
2023-02-26T20:19:29.162Z,11.85
2023-02-26T20:21:57.046Z,11.80
2023-02-26T20:24:27.027Z,11.40
2023-02-26T20:26:55.715Z,10.73
2023-02-26T20:29:25.286Z,11.48
2023-02-26T20:31:55.543Z,12.15
2023-02-26T20:34:24.848Z,12.57
2023-02-26T20:36:56.289Z,12.34
2023-02-26T20:39:24.491Z,12.55
2023-02-26T20:41:55.642Z,12.87
2023-02-26T20:44:24.126Z,12.66
2023-02-26T20:46:53.141Z,12.80
2023-02-26T20:49:22.390Z,12.71
2023-02-26T20:51:51.293Z,12.80
2023-02-26T20:54:22.018Z,12.68
2023-02-26T20:56:51.071Z,12.83
2023-02-26T20:59:19.848Z,12.90
2023-02-26T21:01:48.774Z,12.75
2023-02-26T21:04:17.458Z,12.95
2023-02-26T21:06:46.108Z,12.85
2023-02-26T21:09:15.168Z,12.95
2023-02-26T21:11:44.111Z,12.68
2023-02-26T21:14:13.931Z,12.78
2023-02-26T21:16:43.954Z,12.81
2023-02-26T21:19:13.714Z,12.88
2023-02-26T21:21:41.793Z,12.75
2023-02-26T21:24:10.760Z,12.66
2023-02-26T21:26:38.256Z,12.91
2023-02-26T21:29:06.649Z,12.42
2023-02-26T21:31:34.389Z,12.77
2023-02-26T21:34:17.283Z,12.70
2023-02-26T21:36:50.125Z,12.74
2023-02-26T21:39:17.442Z,12.72
2023-02-26T21:41:45.200Z,12.52
2023-02-26T21:44:13.977Z,12.13
2023-02-26T21:46:41.472Z,11.92
2023-02-26T21:49:09.641Z,12.14
2023-02-26T21:51:37.826Z,11.07
2023-02-26T21:54:05.081Z,10.28
2023-02-26T21:56:32.290Z,9.49
2023-02-26T21:58:59.953Z,10.21
2023-02-26T22:01:27.490Z,9.14
2023-02-26T22:03:55.182Z,9.48
2023-02-26T22:06:22.359Z,9.85
2023-02-26T22:08:50.026Z,10.12
2023-02-26T22:11:17.511Z,10.62
2023-02-26T22:13:44.703Z,10.73
2023-02-26T22:16:13.657Z,11.18
2023-02-26T22:18:41.106Z,10.80
2023-02-26T22:21:08.430Z,11.18
2023-02-26T22:23:35.764Z,11.49
2023-02-26T22:26:03.467Z,10.84
2023-02-26T22:28:30.613Z,10.81
2023-02-26T22:30:58.723Z,11.05
2023-02-26T22:33:26.433Z,10.61
2023-02-26T22:35:57.237Z,11.03
2023-02-26T22:38:24.619Z,11.40
2023-02-26T22:40:52.307Z,10.73
2023-02-26T22:43:19.499Z,11.46
2023-02-26T22:45:46.733Z,10.16
2023-02-26T22:48:14.466Z,9.37
2023-02-26T22:50:42.128Z,9.26
2023-02-26T22:53:09.287Z,9.72
2023-02-26T22:55:36.723Z,9.70
2023-02-26T22:58:04.747Z,10.11
2023-02-26T23:00:32.132Z,10.41
2023-02-26T23:02:59.635Z,10.71
2023-02-26T23:05:29.360Z,10.17
2023-02-26T23:07:56.512Z,9.60
2023-02-26T23:10:23.967Z,10.06
2023-02-26T23:12:51.150Z,10.05
2023-02-26T23:15:18.377Z,8.40
2023-02-26T23:17:45.865Z,8.43
2023-02-26T23:20:13.896Z,9.33
2023-02-26T23:22:44.503Z,9.72
2023-02-26T23:25:12.247Z,8.98
2023-02-26T23:27:39.723Z,8.87
2023-02-26T23:30:08.318Z,8.48
2023-02-26T23:32:37.213Z,8.45
2023-02-26T23:35:04.771Z,7.42
2023-02-26T23:37:32.270Z,7.36
2023-02-26T23:39:59.679Z,7.21
2023-02-26T23:42:26.829Z,7.99
2023-02-26T23:44:53.979Z,7.74
2023-02-26T23:47:21.408Z,8.58
2023-02-26T23:49:48.576Z,8.32
2023-02-26T23:52:16.632Z,9.00
2023-02-26T23:54:44.057Z,8.14
2023-02-26T23:57:13.770Z,8.33
2023-02-26T23:59:40.918Z,8.24
